Iliamna, AK

11:40 PM AKDT on September 17, 2014 (GMT -0800)
Sparrevohn | Change Station
CLOSE
Current Station
Airport
Location: Sparrevohn,
Elevation: 1588 ft
Nearby Weather Stations

Elev 1588 ft 61.10 °N, 155.57 °W | Updated 45 minutes ago

Mostly Cloudy
Mostly Cloudy
46 °F
Feels Like 46 °F
N
0
Wind Variable Wind from North

Today
High -- | Low -- °F
--% Chance of Precip.
Yesterday
High -- | Low -- °F
Precip. -- in
7:54 AM 8:35 PM
Waning Crescent, 29% visible
Pressure 29.13 in
Visibility 10.0 miles
Clouds Few 6500 ft
Mostly Cloudy 7000 ft
Dew Point 38 °F
Humidity 75%
Rainfall 0.00 in
Snow Depth 4 in , 0 in , 0 in
UV 0 out of 12
Pollen Not available.
Air Quality Not available.
Flu Activity Not available.
METAR PASV 180655Z AUTO 00000KT 10SM FEW065 BKN070 08/03 A2913 RMK AO2 SLP865 T00750033

More Conditions Fewer Conditions

Pressure 29.13 in
Visibility 10.0 miles
Clouds Few 6500 ft
Mostly Cloudy 7000 ft
Dew Point 38 °F
Humidity 75%
Rainfall 0.00 in
Snow Depth 4 in , 0 in , 0 in
UV 0 out of 12
Pollen Not available.
Air Quality Not available.
Flu Activity Not available.
METAR PASV 180655Z AUTO 00000KT 10SM FEW065 BKN070 08/03 A2913 RMK AO2 SLP865 T00750033

More Conditions Fewer Conditions

10-Day Weather Forecast

Almanac

Astronomy

Sep. 17, 2014 Rise Set
Actual Time 7:54 AM AKDT 8:35 PM AKDT
Civil Twilight 7:12 AM AKDT 9:16 PM AKDT
Nautical Twilight 6:22 AM AKDT 10:06 PM AKDT
Astronomical Twilight 5:25 AM AKDT 11:02 PM AKDT
Moon 12:59 AM AKDT (9/17) 5:52 PM AKDT (9/17)
Length of Visible Light 14h 03m
Length of Day
12h 40m
Tomorrow will be 5m 18s shorter.
Waning Crescent, 29% of the Moon is Illuminated
Sep 18
Waning Crescent
Sep 24
New
Oct 1
First Quarter
Oct 8
Full
Oct 15
Last Quarter

Community

WunderPhotos

Upload Photos

1,754,299 photos uploaded!

Nearby

Snow Depth

Station Depth Elevation
MF Bradley River 4 in 2300 ft
Grouse Creek Divide 0 in 700 ft
Upper Tsaina River 0 in 1750 ft
Munson Ridge 1 in 3100 ft
Atigun Pass 2 in 4800 ft

Earthquake Activity

City Distance Mag. Time & Date
No recent earthquake activity has been reported nearby.
Minimum magnitude displayed is 2.5.

Coastal Water Temperatures

Place Temperature
No Stations Reporting

Nearby Weather Stations